sensor_id;sensor_type;location;lat;lon;timestamp;pressure;altitude;pressure_sealevel;temperature;humidity
8061;BME280;4073;42.626;25.386;2022-10-16T00:00:36;97887.97;;;8.36;100.00
8061;BME280;4073;42.626;25.386;2022-10-16T00:03:05;97889.56;;;8.37;100.00
8061;BME280;4073;42.626;25.386;2022-10-16T00:05:30;97894.00;;;8.32;100.00
8061;BME280;4073;42.626;25.386;2022-10-16T00:07:56;97889.38;;;8.27;100.00
8061;BME280;4073;42.626;25.386;2022-10-16T00:10:22;97890.34;;;8.21;100.00
8061;BME280;4073;42.626;25.386;2022-10-16T00:12:47;97887.09;;;8.19;100.00
8061;BME280;4073;42.626;25.386;2022-10-16T00:15:13;97888.09;;;8.01;100.00
8061;BME280;4073;42.626;25.386;2022-10-16T00:17:39;97891.78;;;8.00;100.00
8061;BME280;4073;42.626;25.386;2022-10-16T00:20:05;97892.16;;;8.04;100.00
8061;BME280;4073;42.626;25.386;2022-10-16T00:22:31;97891.31;;;8.03;100.00
8061;BME280;4073;42.626;25.386;2022-10-16T00:24:56;97889.72;;;8.02;100.00
8061;BME280;4073;42.626;25.386;2022-10-16T00:27:22;97897.13;;;8.00;100.00
8061;BME280;4073;42.626;25.386;2022-10-16T00:29:51;97903.38;;;7.94;100.00
8061;BME280;4073;42.626;25.386;2022-10-16T00:32:20;97898.91;;;7.83;100.00
8061;BME280;4073;42.626;25.386;2022-10-16T00:34:46;97903.84;;;7.63;100.00
8061;BME280;4073;42.626;25.386;2022-10-16T00:37:12;97888.22;;;7.67;100.00
8061;BME280;4073;42.626;25.386;2022-10-16T00:39:38;97899.53;;;7.74;100.00
8061;BME280;4073;42.626;25.386;2022-10-16T00:42:03;97907.72;;;7.84;100.00
8061;BME280;4073;42.626;25.386;2022-10-16T00:47:26;97910.44;;;8.00;100.00
8061;BME280;4073;42.626;25.386;2022-10-16T00:49:57;97915.69;;;7.95;100.00
8061;BME280;4073;42.626;25.386;2022-10-16T00:52:24;97908.75;;;7.83;100.00
8061;BME280;4073;42.626;25.386;2022-10-16T00:54:50;97915.03;;;7.77;100.00
8061;BME280;4073;42.626;25.386;2022-10-16T00:57:17;97924.72;;;7.83;100.00
8061;BME280;4073;42.626;25.386;2022-10-16T00:59:43;97927.50;;;7.88;100.00
8061;BME280;4073;42.626;25.386;2022-10-16T01:02:12;97933.06;;;7.86;100.00
8061;BME280;4073;42.626;25.386;2022-10-16T01:04:41;97918.50;;;7.77;100.00
8061;BME280;4073;42.626;25.386;2022-10-16T01:12:55;97934.94;;;7.74;100.00
8061;BME280;4073;42.626;25.386;2022-10-16T01:15:30;97923.25;;;7.75;100.00
8061;BME280;4073;42.626;25.386;2022-10-16T01:20:33;97931.91;;;7.82;100.00
8061;BME280;4073;42.626;25.386;2022-10-16T01:26:06;97932.72;;;7.83;100.00
8061;BME280;4073;42.626;25.386;2022-10-16T01:31:15;97929.97;;;7.66;100.00
8061;BME280;4073;42.626;25.386;2022-10-16T01:33:47;97938.31;;;7.70;100.00
8061;BME280;4073;42.626;25.386;2022-10-16T01:36:15;97942.16;;;7.62;100.00
8061;BME280;4073;42.626;25.386;2022-10-16T01:38:44;97944.09;;;7.67;100.00
8061;BME280;4073;42.626;25.386;2022-10-16T01:41:26;97938.66;;;7.62;100.00
8061;BME280;4073;42.626;25.386;2022-10-16T01:46:22;97944.50;;;7.47;100.00
8061;BME280;4073;42.626;25.386;2022-10-16T01:48:49;97933.72;;;7.42;100.00
8061;BME280;4073;42.626;25.386;2022-10-16T01:51:17;97943.53;;;7.53;100.00
8061;BME280;4073;42.626;25.386;2022-10-16T01:53:51;97938.44;;;7.52;100.00
8061;BME280;4073;42.626;25.386;2022-10-16T01:56:18;97940.88;;;7.53;100.00
8061;BME280;4073;42.626;25.386;2022-10-16T01:58:58;97944.00;;;7.50;100.00
8061;BME280;4073;42.626;25.386;2022-10-16T02:01:28;97944.13;;;7.55;100.00
8061;BME280;4073;42.626;25.386;2022-10-16T02:03:58;97949.22;;;7.57;100.00
8061;BME280;4073;42.626;25.386;2022-10-16T02:06:24;97947.47;;;7.62;100.00
8061;BME280;4073;42.626;25.386;2022-10-16T02:08:51;97956.97;;;7.58;100.00
8061;BME280;4073;42.626;25.386;2022-10-16T02:11:16;97942.53;;;7.43;100.00
8061;BME280;4073;42.626;25.386;2022-10-16T02:13:46;97947.59;;;7.44;100.00
8061;BME280;4073;42.626;25.386;2022-10-16T02:16:14;97940.78;;;7.37;100.00
8061;BME280;4073;42.626;25.386;2022-10-16T02:18:40;97946.56;;;7.34;100.00
8061;BME280;4073;42.626;25.386;2022-10-16T02:23:45;97961.25;;;7.36;100.00
8061;BME280;4073;42.626;25.386;2022-10-16T02:26:13;97967.97;;;7.27;100.00
8061;BME280;4073;42.626;25.386;2022-10-16T02:28:51;97954.75;;;7.09;100.00
8061;BME280;4073;42.626;25.386;2022-10-16T02:31:24;97961.25;;;7.02;100.00
8061;BME280;4073;42.626;25.386;2022-10-16T02:33:53;97953.13;;;6.97;100.00
8061;BME280;4073;42.626;25.386;2022-10-16T02:36:20;97954.63;;;6.81;100.00
8061;BME280;4073;42.626;25.386;2022-10-16T02:38:46;97960.06;;;6.86;100.00
8061;BME280;4073;42.626;25.386;2022-10-16T02:41:12;97961.53;;;6.82;100.00
8061;BME280;4073;42.626;25.386;2022-10-16T02:43:39;97953.91;;;6.74;100.00
8061;BME280;4073;42.626;25.386;2022-10-16T02:46:04;97949.72;;;6.67;100.00
8061;BME280;4073;42.626;25.386;2022-10-16T02:48:30;97963.72;;;6.74;100.00
8061;BME280;4073;42.626;25.386;2022-10-16T02:50:56;97968.09;;;6.68;100.00
8061;BME280;4073;42.626;25.386;2022-10-16T02:53:22;97965.44;;;6.68;100.00
8061;BME280;4073;42.626;25.386;2022-10-16T02:55:47;97965.56;;;6.62;100.00
8061;BME280;4073;42.626;25.386;2022-10-16T02:58:13;97960.09;;;6.57;100.00
8061;BME280;4073;42.626;25.386;2022-10-16T03:00:38;97976.03;;;6.57;100.00
8061;BME280;4073;42.626;25.386;2022-10-16T03:03:04;97987.94;;;6.54;100.00
8061;BME280;4073;42.626;25.386;2022-10-16T03:05:29;97983.53;;;6.48;100.00
8061;BME280;4073;42.626;25.386;2022-10-16T03:07:55;97986.41;;;6.47;100.00
8061;BME280;4073;42.626;25.386;2022-10-16T03:10:20;97982.47;;;6.38;100.00
8061;BME280;4073;42.626;25.386;2022-10-16T03:12:46;97990.78;;;6.41;100.00
8061;BME280;4073;42.626;25.386;2022-10-16T03:15:11;97990.66;;;6.36;100.00
8061;BME280;4073;42.626;25.386;2022-10-16T03:17:37;97991.66;;;6.35;100.00
8061;BME280;4073;42.626;25.386;2022-10-16T03:20:03;97993.25;;;6.25;100.00
8061;BME280;4073;42.626;25.386;2022-10-16T03:22:28;97997.03;;;6.17;100.00
8061;BME280;4073;42.626;25.386;2022-10-16T03:24:54;97996.81;;;6.19;100.00
8061;BME280;4073;42.626;25.386;2022-10-16T03:27:20;97989.88;;;6.18;100.00
8061;BME280;4073;42.626;25.386;2022-10-16T03:29:45;97993.31;;;6.18;100.00
8061;BME280;4073;42.626;25.386;2022-10-16T03:32:11;97990.31;;;6.15;100.00
8061;BME280;4073;42.626;25.386;2022-10-16T03:34:36;97993.94;;;6.20;100.00
8061;BME280;4073;42.626;25.386;2022-10-16T03:37:02;97998.19;;;6.21;100.00
8061;BME280;4073;42.626;25.386;2022-10-16T03:39:27;97990.53;;;6.13;100.00
8061;BME280;4073;42.626;25.386;2022-10-16T03:41:53;97999.09;;;6.15;100.00
8061;BME280;4073;42.626;25.386;2022-10-16T03:44:18;98005.75;;;6.06;100.00
8061;BME280;4073;42.626;25.386;2022-10-16T03:46:43;98007.44;;;6.01;100.00
8061;BME280;4073;42.626;25.386;2022-10-16T03:49:09;98010.59;;;6.09;100.00
8061;BME280;4073;42.626;25.386;2022-10-16T03:51:34;98009.56;;;6.10;100.00
8061;BME280;4073;42.626;25.386;2022-10-16T03:54:00;98010.59;;;6.09;100.00
8061;BME280;4073;42.626;25.386;2022-10-16T03:56:26;98002.03;;;6.07;100.00
8061;BME280;4073;42.626;25.386;2022-10-16T03:58:51;98003.16;;;6.18;100.00
8061;BME280;4073;42.626;25.386;2022-10-16T04:01:16;98014.13;;;6.21;100.00
8061;BME280;4073;42.626;25.386;2022-10-16T04:03:42;98005.38;;;6.21;100.00
8061;BME280;4073;42.626;25.386;2022-10-16T04:06:07;98014.34;;;6.20;100.00
8061;BME280;4073;42.626;25.386;2022-10-16T04:08:34;98015.97;;;6.21;100.00
8061;BME280;4073;42.626;25.386;2022-10-16T04:11:02;98016.25;;;6.31;100.00
8061;BME280;4073;42.626;25.386;2022-10-16T04:13:27;98018.94;;;6.31;100.00
8061;BME280;4073;42.626;25.386;2022-10-16T04:15:53;98011.31;;;6.34;100.00
8061;BME280;4073;42.626;25.386;2022-10-16T04:18:18;98005.94;;;6.23;100.00
8061;BME280;4073;42.626;25.386;2022-10-16T04:20:43;98007.47;;;6.30;100.00
8061;BME280;4073;42.626;25.386;2022-10-16T04:23:09;98018.81;;;6.37;100.00
8061;BME280;4073;42.626;25.386;2022-10-16T04:25:34;98018.53;;;6.27;100.00
8061;BME280;4073;42.626;25.386;2022-10-16T04:28:00;98017.59;;;6.22;100.00
8061;BME280;4073;42.626;25.386;2022-10-16T04:30:25;98018.34;;;6.11;100.00
8061;BME280;4073;42.626;25.386;2022-10-16T04:32:51;98027.94;;;6.12;100.00
8061;BME280;4073;42.626;25.386;2022-10-16T04:35:18;98023.78;;;6.16;100.00
8061;BME280;4073;42.626;25.386;2022-10-16T04:37:44;98023.00;;;6.15;100.00
8061;BME280;4073;42.626;25.386;2022-10-16T04:40:10;98025.78;;;6.20;100.00
8061;BME280;4073;42.626;25.386;2022-10-16T04:42:36;98020.56;;;6.14;100.00
8061;BME280;4073;42.626;25.386;2022-10-16T04:45:02;98021.44;;;6.08;100.00
8061;BME280;4073;42.626;25.386;2022-10-16T04:47:27;98015.97;;;6.03;100.00
8061;BME280;4073;42.626;25.386;2022-10-16T04:49:53;98005.00;;;5.99;100.00
8061;BME280;4073;42.626;25.386;2022-10-16T04:52:19;98023.22;;;6.14;100.00
8061;BME280;4073;42.626;25.386;2022-10-16T04:54:46;98028.59;;;6.25;100.00
8061;BME280;4073;42.626;25.386;2022-10-16T04:57:12;98030.94;;;6.33;100.00
8061;BME280;4073;42.626;25.386;2022-10-16T04:59:37;98036.31;;;6.74;100.00
8061;BME280;4073;42.626;25.386;2022-10-16T05:02:03;98044.38;;;7.32;100.00
8061;BME280;4073;42.626;25.386;2022-10-16T05:04:28;98051.13;;;7.92;100.00
8061;BME280;4073;42.626;25.386;2022-10-16T05:06:54;98055.97;;;8.58;98.91
8061;BME280;4073;42.626;25.386;2022-10-16T05:09:19;98058.28;;;9.10;92.98
8061;BME280;4073;42.626;25.386;2022-10-16T05:11:45;98061.41;;;9.52;88.13
8061;BME280;4073;42.626;25.386;2022-10-16T05:14:11;98063.00;;;10.24;83.83
8061;BME280;4073;42.626;25.386;2022-10-16T05:16:36;98058.88;;;10.81;78.95
8061;BME280;4073;42.626;25.386;2022-10-16T05:19:02;98065.94;;;10.92;77.93
8061;BME280;4073;42.626;25.386;2022-10-16T05:21:27;98061.50;;;11.29;76.71
8061;BME280;4073;42.626;25.386;2022-10-16T05:23:53;98070.88;;;11.95;73.86
8061;BME280;4073;42.626;25.386;2022-10-16T05:26:20;98067.81;;;12.89;69.01
8061;BME280;4073;42.626;25.386;2022-10-16T05:28:46;98067.94;;;13.30;67.00
8061;BME280;4073;42.626;25.386;2022-10-16T05:31:11;98076.25;;;13.93;63.69
8061;BME280;4073;42.626;25.386;2022-10-16T05:33:37;98080.84;;;13.73;63.49
8061;BME280;4073;42.626;25.386;2022-10-16T05:36:04;98079.47;;;14.05;62.86
8061;BME280;4073;42.626;25.386;2022-10-16T05:38:31;98082.25;;;14.69;60.71
8061;BME280;4073;42.626;25.386;2022-10-16T05:40:56;98084.09;;;15.27;58.45
8061;BME280;4073;42.626;25.386;2022-10-16T05:43:22;98085.56;;;15.87;56.10
8061;BME280;4073;42.626;25.386;2022-10-16T05:45:58;98100.19;;;16.09;55.37
8061;BME280;4073;42.626;25.386;2022-10-16T05:48:24;98104.75;;;16.37;54.15
8061;BME280;4073;42.626;25.386;2022-10-16T05:51:00;98097.41;;;16.48;54.18
8061;BME280;4073;42.626;25.386;2022-10-16T05:53:27;98101.50;;;17.11;52.47
8061;BME280;4073;42.626;25.386;2022-10-16T05:55:54;98102.75;;;17.55;50.29
8061;BME280;4073;42.626;25.386;2022-10-16T05:58:20;98105.47;;;18.20;48.98
8061;BME280;4073;42.626;25.386;2022-10-16T06:00:56;98096.13;;;18.85;46.57
8061;BME280;4073;42.626;25.386;2022-10-16T06:03:22;98099.69;;;19.21;45.82
8061;BME280;4073;42.626;25.386;2022-10-16T06:05:47;98107.19;;;19.73;44.64
8061;BME280;4073;42.626;25.386;2022-10-16T06:08:13;98107.75;;;20.27;43.43
8061;BME280;4073;42.626;25.386;2022-10-16T06:10:38;98099.94;;;20.26;43.08
8061;BME280;4073;42.626;25.386;2022-10-16T06:13:04;98108.19;;;20.21;43.00
8061;BME280;4073;42.626;25.386;2022-10-16T06:15:29;98106.63;;;20.98;41.80
8061;BME280;4073;42.626;25.386;2022-10-16T06:17:55;98112.34;;;20.88;41.76
8061;BME280;4073;42.626;25.386;2022-10-16T06:20:20;98108.31;;;21.42;40.75
8061;BME280;4073;42.626;25.386;2022-10-16T06:22:46;98111.03;;;21.42;40.46
8061;BME280;4073;42.626;25.386;2022-10-16T06:25:11;98115.22;;;21.65;40.27
8061;BME280;4073;42.626;25.386;2022-10-16T06:27:39;98108.00;;;22.11;39.56
8061;BME280;4073;42.626;25.386;2022-10-16T06:30:06;98119.72;;;22.75;37.96
8061;BME280;4073;42.626;25.386;2022-10-16T06:32:31;98115.47;;;22.48;38.64
8061;BME280;4073;42.626;25.386;2022-10-16T06:34:57;98116.38;;;23.36;37.40
8061;BME280;4073;42.626;25.386;2022-10-16T06:37:22;98122.69;;;23.90;35.88
8061;BME280;4073;42.626;25.386;2022-10-16T06:39:48;98129.94;;;24.39;35.06
8061;BME280;4073;42.626;25.386;2022-10-16T06:42:13;98137.28;;;24.14;35.58
8061;BME280;4073;42.626;25.386;2022-10-16T06:44:39;98127.50;;;24.58;34.66
8061;BME280;4073;42.626;25.386;2022-10-16T06:47:04;98136.06;;;24.24;35.76
8061;BME280;4073;42.626;25.386;2022-10-16T06:49:30;98142.47;;;24.84;34.58
8061;BME280;4073;42.626;25.386;2022-10-16T06:51:55;98148.09;;;25.12;34.10
8061;BME280;4073;42.626;25.386;2022-10-16T06:54:21;98147.19;;;25.96;32.81
8061;BME280;4073;42.626;25.386;2022-10-16T06:56:46;98147.25;;;25.72;33.20
8061;BME280;4073;42.626;25.386;2022-10-16T06:59:11;98145.03;;;25.89;33.22
8061;BME280;4073;42.626;25.386;2022-10-16T07:01:37;98148.56;;;26.72;31.62
8061;BME280;4073;42.626;25.386;2022-10-16T07:04:03;98143.19;;;26.91;30.87
8061;BME280;4073;42.626;25.386;2022-10-16T07:06:31;98144.59;;;27.01;30.96
8061;BME280;4073;42.626;25.386;2022-10-16T07:08:57;98145.13;;;26.91;30.84
8061;BME280;4073;42.626;25.386;2022-10-16T07:11:23;98146.69;;;27.54;30.00
8061;BME280;4073;42.626;25.386;2022-10-16T07:13:50;98156.75;;;28.19;29.10
8061;BME280;4073;42.626;25.386;2022-10-16T07:16:21;98148.34;;;28.50;28.63
8061;BME280;4073;42.626;25.386;2022-10-16T07:18:47;98148.56;;;28.42;28.48
8061;BME280;4073;42.626;25.386;2022-10-16T07:21:19;98150.28;;;28.69;28.08
8061;BME280;4073;42.626;25.386;2022-10-16T07:23:49;98155.44;;;28.51;28.54
8061;BME280;4073;42.626;25.386;2022-10-16T07:26:15;98149.94;;;28.13;29.05
8061;BME280;4073;42.626;25.386;2022-10-16T07:28:42;98148.38;;;28.95;27.41
8061;BME280;4073;42.626;25.386;2022-10-16T07:31:11;98146.25;;;28.44;28.38
8061;BME280;4073;42.626;25.386;2022-10-16T07:33:37;98142.59;;;28.78;27.74
8061;BME280;4073;42.626;25.386;2022-10-16T07:36:04;98152.59;;;29.34;26.88
8061;BME280;4073;42.626;25.386;2022-10-16T07:38:29;98152.03;;;29.74;26.66
8061;BME280;4073;42.626;25.386;2022-10-16T07:41:17;98160.34;;;29.51;26.49
8061;BME280;4073;42.626;25.386;2022-10-16T07:43:46;98147.16;;;29.15;26.76
8061;BME280;4073;42.626;25.386;2022-10-16T07:46:12;98147.13;;;29.90;25.69
8061;BME280;4073;42.626;25.386;2022-10-16T07:48:37;98137.06;;;30.05;25.30
8061;BME280;4073;42.626;25.386;2022-10-16T07:51:05;98145.19;;;30.57;24.61
8061;BME280;4073;42.626;25.386;2022-10-16T07:53:31;98154.03;;;31.13;23.66
8061;BME280;4073;42.626;25.386;2022-10-16T07:56:03;98156.66;;;30.95;23.56
8061;BME280;4073;42.626;25.386;2022-10-16T07:58:29;98151.59;;;31.04;23.25
8061;BME280;4073;42.626;25.386;2022-10-16T08:00:56;98142.22;;;30.72;23.21
8061;BME280;4073;42.626;25.386;2022-10-16T08:03:22;98129.94;;;31.10;23.01
8061;BME280;4073;42.626;25.386;2022-10-16T08:05:47;98145.16;;;31.37;22.12
8061;BME280;4073;42.626;25.386;2022-10-16T08:08:14;98145.13;;;30.90;22.84
8061;BME280;4073;42.626;25.386;2022-10-16T08:10:40;98135.81;;;31.05;22.07
8061;BME280;4073;42.626;25.386;2022-10-16T08:13:06;98141.16;;;31.27;22.03
8061;BME280;4073;42.626;25.386;2022-10-16T08:15:31;98145.78;;;31.70;21.49
8061;BME280;4073;42.626;25.386;2022-10-16T08:18:02;98143.75;;;31.60;21.07
8061;BME280;4073;42.626;25.386;2022-10-16T08:20:29;98151.34;;;30.76;22.09
8061;BME280;4073;42.626;25.386;2022-10-16T08:22:55;98141.56;;;30.86;21.89
8061;BME280;4073;42.626;25.386;2022-10-16T08:25:22;98133.50;;;31.10;21.40
8061;BME280;4073;42.626;25.386;2022-10-16T08:27:48;98136.38;;;31.24;21.43
8061;BME280;4073;42.626;25.386;2022-10-16T08:30:15;98134.53;;;31.39;21.28
8061;BME280;4073;42.626;25.386;2022-10-16T08:32:40;98130.31;;;31.59;20.79
8061;BME280;4073;42.626;25.386;2022-10-16T08:35:13;98124.06;;;31.18;21.14
8061;BME280;4073;42.626;25.386;2022-10-16T08:37:39;98130.25;;;31.45;21.16
8061;BME280;4073;42.626;25.386;2022-10-16T08:40:06;98128.56;;;30.90;21.72
8061;BME280;4073;42.626;25.386;2022-10-16T08:42:51;98131.63;;;30.41;21.65
8061;BME280;4073;42.626;25.386;2022-10-16T08:50:28;98134.03;;;30.83;21.21
8061;BME280;4073;42.626;25.386;2022-10-16T08:52:55;98144.25;;;30.42;21.61
8061;BME280;4073;42.626;25.386;2022-10-16T08:55:43;98138.38;;;30.14;21.88
8061;BME280;4073;42.626;25.386;2022-10-16T08:58:18;98131.66;;;29.82;21.76
8061;BME280;4073;42.626;25.386;2022-10-16T09:00:47;98142.38;;;30.17;21.40
8061;BME280;4073;42.626;25.386;2022-10-16T09:17:41;98133.63;;;30.15;21.36
8061;BME280;4073;42.626;25.386;2022-10-16T09:22:55;98132.19;;;28.90;22.65
8061;BME280;4073;42.626;25.386;2022-10-16T09:25:25;98132.72;;;28.77;22.57
8061;BME280;4073;42.626;25.386;2022-10-16T09:27:53;98137.19;;;28.85;22.54
8061;BME280;4073;42.626;25.386;2022-10-16T09:30:21;98136.88;;;28.45;22.79
8061;BME280;4073;42.626;25.386;2022-10-16T09:32:49;98130.19;;;27.89;23.28
8061;BME280;4073;42.626;25.386;2022-10-16T09:35:38;98131.19;;;28.38;22.84
8061;BME280;4073;42.626;25.386;2022-10-16T09:38:06;98126.66;;;28.07;23.27
8061;BME280;4073;42.626;25.386;2022-10-16T09:40:33;98120.00;;;27.89;23.37
8061;BME280;4073;42.626;25.386;2022-10-16T09:45:37;98120.72;;;27.01;24.34
8061;BME280;4073;42.626;25.386;2022-10-16T09:48:11;98116.47;;;26.88;24.90
8061;BME280;4073;42.626;25.386;2022-10-16T09:50:37;98118.50;;;26.76;25.15
8061;BME280;4073;42.626;25.386;2022-10-16T09:53:14;98122.47;;;26.63;25.04
8061;BME280;4073;42.626;25.386;2022-10-16T09:55:50;98114.09;;;26.44;25.73
8061;BME280;4073;42.626;25.386;2022-10-16T09:58:16;98115.34;;;26.03;25.70
8061;BME280;4073;42.626;25.386;2022-10-16T10:00:49;98109.53;;;25.53;26.24
8061;BME280;4073;42.626;25.386;2022-10-16T10:03:38;98109.69;;;24.96;26.91
8061;BME280;4073;42.626;25.386;2022-10-16T10:09:03;98098.66;;;24.60;27.92
8061;BME280;4073;42.626;25.386;2022-10-16T10:14:14;98088.22;;;25.10;27.38
8061;BME280;4073;42.626;25.386;2022-10-16T10:16:40;98090.25;;;25.26;27.26
8061;BME280;4073;42.626;25.386;2022-10-16T10:19:14;98087.81;;;25.60;26.76
8061;BME280;4073;42.626;25.386;2022-10-16T10:21:40;98090.00;;;25.55;26.62
8061;BME280;4073;42.626;25.386;2022-10-16T10:24:10;98078.47;;;25.89;26.39
8061;BME280;4073;42.626;25.386;2022-10-16T10:26:36;98086.31;;;26.45;25.37
8061;BME280;4073;42.626;25.386;2022-10-16T10:29:25;98083.63;;;26.61;25.30
8061;BME280;4073;42.626;25.386;2022-10-16T10:32:15;98078.22;;;26.80;24.87
8061;BME280;4073;42.626;25.386;2022-10-16T10:45:48;98073.41;;;28.15;22.76
8061;BME280;4073;42.626;25.386;2022-10-16T10:51:07;98061.97;;;27.75;23.36
8061;BME280;4073;42.626;25.386;2022-10-16T11:07:02;98061.38;;;24.32;27.64
8061;BME280;4073;42.626;25.386;2022-10-16T11:09:45;98059.97;;;24.14;27.73
8061;BME280;4073;42.626;25.386;2022-10-16T11:12:15;98058.06;;;24.26;27.97
8061;BME280;4073;42.626;25.386;2022-10-16T11:17:41;98057.56;;;24.69;27.93
8061;BME280;4073;42.626;25.386;2022-10-16T11:20:23;98053.03;;;24.85;27.45
8061;BME280;4073;42.626;25.386;2022-10-16T11:23:00;98051.91;;;24.74;27.00
8061;BME280;4073;42.626;25.386;2022-10-16T11:25:28;98052.25;;;24.72;27.48
8061;BME280;4073;42.626;25.386;2022-10-16T11:28:18;98052.78;;;24.90;27.24
8061;BME280;4073;42.626;25.386;2022-10-16T11:31:16;98050.41;;;24.76;27.24
8061;BME280;4073;42.626;25.386;2022-10-16T11:33:51;98054.03;;;24.12;27.28
8061;BME280;4073;42.626;25.386;2022-10-16T11:36:28;98038.13;;;24.14;27.76
8061;BME280;4073;42.626;25.386;2022-10-16T11:41:42;98038.25;;;24.29;27.87
8061;BME280;4073;42.626;25.386;2022-10-16T11:44:25;98031.59;;;23.74;27.92
8061;BME280;4073;42.626;25.386;2022-10-16T11:49:47;98032.75;;;23.52;28.05
8061;BME280;4073;42.626;25.386;2022-10-16T11:52:27;98030.19;;;23.68;28.10
8061;BME280;4073;42.626;25.386;2022-10-16T11:57:31;98039.25;;;24.13;27.61
8061;BME280;4073;42.626;25.386;2022-10-16T12:00:08;98029.97;;;24.26;27.18
8061;BME280;4073;42.626;25.386;2022-10-16T12:02:44;98031.41;;;24.23;27.69
8061;BME280;4073;42.626;25.386;2022-10-16T12:08:14;98050.31;;;24.16;26.83
8061;BME280;4073;42.626;25.386;2022-10-16T12:10:42;98055.56;;;24.21;26.17
8061;BME280;4073;42.626;25.386;2022-10-16T12:13:47;98049.09;;;24.38;25.10
8061;BME280;4073;42.626;25.386;2022-10-16T12:18:44;98051.97;;;24.41;26.60
8061;BME280;4073;42.626;25.386;2022-10-16T12:21:11;98055.91;;;24.32;26.75
8061;BME280;4073;42.626;25.386;2022-10-16T12:23:53;98054.09;;;24.24;27.12
8061;BME280;4073;42.626;25.386;2022-10-16T12:26:26;98053.84;;;24.17;27.09
8061;BME280;4073;42.626;25.386;2022-10-16T12:28:52;98057.44;;;24.09;26.89
8061;BME280;4073;42.626;25.386;2022-10-16T12:31:18;98057.41;;;23.76;27.32
8061;BME280;4073;42.626;25.386;2022-10-16T12:33:58;98045.41;;;23.89;27.28
8061;BME280;4073;42.626;25.386;2022-10-16T12:36:30;98040.44;;;23.91;27.52
8061;BME280;4073;42.626;25.386;2022-10-16T12:38:57;98050.75;;;23.86;27.21
8061;BME280;4073;42.626;25.386;2022-10-16T12:43:53;98045.81;;;23.47;27.13
8061;BME280;4073;42.626;25.386;2022-10-16T12:48:44;98065.66;;;23.56;27.15
8061;BME280;4073;42.626;25.386;2022-10-16T12:51:12;98060.69;;;23.70;26.74
8061;BME280;4073;42.626;25.386;2022-10-16T12:53:46;98066.41;;;23.77;26.64
8061;BME280;4073;42.626;25.386;2022-10-16T12:56:22;98059.41;;;23.88;26.40
8061;BME280;4073;42.626;25.386;2022-10-16T13:11:04;98076.25;;;23.90;24.67
8061;BME280;4073;42.626;25.386;2022-10-16T13:16:20;98082.31;;;23.75;25.39
8061;BME280;4073;42.626;25.386;2022-10-16T13:19:11;98085.94;;;23.67;25.44
8061;BME280;4073;42.626;25.386;2022-10-16T13:21:54;98083.56;;;23.16;26.08
8061;BME280;4073;42.626;25.386;2022-10-16T13:24:26;98084.09;;;23.09;26.33
8061;BME280;4073;42.626;25.386;2022-10-16T13:27:08;98091.63;;;23.12;26.37
8061;BME280;4073;42.626;25.386;2022-10-16T13:29:39;98095.00;;;23.09;26.52
8061;BME280;4073;42.626;25.386;2022-10-16T13:32:09;98096.00;;;23.05;26.18
8061;BME280;4073;42.626;25.386;2022-10-16T13:34:44;98089.00;;;22.95;26.98
8061;BME280;4073;42.626;25.386;2022-10-16T13:37:21;98097.78;;;23.01;26.77
8061;BME280;4073;42.626;25.386;2022-10-16T13:39:47;98103.34;;;23.04;26.71
8061;BME280;4073;42.626;25.386;2022-10-16T13:42:33;98094.06;;;22.76;26.88
8061;BME280;4073;42.626;25.386;2022-10-16T13:44:59;98090.22;;;22.68;27.36
8061;BME280;4073;42.626;25.386;2022-10-16T13:47:27;98096.03;;;22.58;27.24
8061;BME280;4073;42.626;25.386;2022-10-16T13:50:00;98104.41;;;22.53;26.76
8061;BME280;4073;42.626;25.386;2022-10-16T13:52:26;98105.06;;;22.42;27.13
8061;BME280;4073;42.626;25.386;2022-10-16T13:54:52;98098.06;;;22.24;27.61
8061;BME280;4073;42.626;25.386;2022-10-16T13:57:17;98104.16;;;22.21;27.67
8061;BME280;4073;42.626;25.386;2022-10-16T13:59:43;98104.66;;;21.89;27.65
8061;BME280;4073;42.626;25.386;2022-10-16T14:02:29;98096.81;;;21.87;27.38
8061;BME280;4073;42.626;25.386;2022-10-16T14:04:56;98102.13;;;21.92;27.87
8061;BME280;4073;42.626;25.386;2022-10-16T14:07:27;98108.34;;;21.84;27.84
8061;BME280;4073;42.626;25.386;2022-10-16T14:09:54;98125.16;;;21.69;27.90
8061;BME280;4073;42.626;25.386;2022-10-16T14:12:21;98123.69;;;21.63;28.75
8061;BME280;4073;42.626;25.386;2022-10-16T14:14:49;98120.34;;;21.66;28.89
8061;BME280;4073;42.626;25.386;2022-10-16T14:17:18;98124.19;;;21.48;29.13
8061;BME280;4073;42.626;25.386;2022-10-16T14:19:46;98131.66;;;21.26;29.01
8061;BME280;4073;42.626;25.386;2022-10-16T14:22:40;98133.69;;;21.03;30.00
8061;BME280;4073;42.626;25.386;2022-10-16T14:27:43;98128.69;;;20.97;30.70
8061;BME280;4073;42.626;25.386;2022-10-16T14:30:18;98126.44;;;20.90;30.58
8061;BME280;4073;42.626;25.386;2022-10-16T14:35:31;98132.50;;;20.26;31.79
8061;BME280;4073;42.626;25.386;2022-10-16T14:37:58;98131.56;;;20.08;32.44
8061;BME280;4073;42.626;25.386;2022-10-16T14:40:32;98134.09;;;20.05;32.82
8061;BME280;4073;42.626;25.386;2022-10-16T14:42:59;98136.16;;;19.99;33.19
8061;BME280;4073;42.626;25.386;2022-10-16T14:45:28;98134.09;;;19.83;33.69
8061;BME280;4073;42.626;25.386;2022-10-16T14:47:59;98138.72;;;19.82;34.01
8061;BME280;4073;42.626;25.386;2022-10-16T14:50:26;98147.50;;;19.66;34.93
8061;BME280;4073;42.626;25.386;2022-10-16T14:52:52;98141.13;;;19.48;35.37
8061;BME280;4073;42.626;25.386;2022-10-16T14:55:17;98140.78;;;19.28;35.74
8061;BME280;4073;42.626;25.386;2022-10-16T14:57:44;98145.28;;;19.19;36.17
8061;BME280;4073;42.626;25.386;2022-10-16T15:00:17;98144.78;;;19.03;36.83
8061;BME280;4073;42.626;25.386;2022-10-16T15:02:43;98144.38;;;18.96;36.82
8061;BME280;4073;42.626;25.386;2022-10-16T15:05:13;98153.13;;;18.93;36.86
8061;BME280;4073;42.626;25.386;2022-10-16T15:07:39;98149.03;;;18.69;36.72
8061;BME280;4073;42.626;25.386;2022-10-16T15:10:05;98139.53;;;18.39;37.22
8061;BME280;4073;42.626;25.386;2022-10-16T15:12:30;98151.53;;;18.33;38.06
8061;BME280;4073;42.626;25.386;2022-10-16T15:14:56;98148.59;;;18.16;38.36
8061;BME280;4073;42.626;25.386;2022-10-16T15:17:21;98152.69;;;17.95;39.18
8061;BME280;4073;42.626;25.386;2022-10-16T15:19:47;98154.41;;;17.72;40.12